PWSweather.com
Personal Weather Stations
Station Observations
IFREISTO2
Freiston, FreistonGB PE22 0QJ

FreistonFreistonGB PE22 0QJ

Lat: 52.964, Lon: 0.041

Elevation: 16

Station Type: Fine Offset

http://www.midlifedad.me.uk/weather

High Low Average
Temperature 50.7°F10.4°C 42.4°F5.8°C 45.5°F7.5°C
Dew Point 45.1°F7.3°C 40.1°F4.5°C 41.9°F5.5°C
Winds 7.0 mph 11.3 kmh 0.2 mph 0.3 kmh 2.0 mph SSW3.2 kmh SSW
Wind Gusts 12.1 mph19.5 kmh 1.6 mph2.6 kmh 5.0 mph8.0 kmh
Humidity 93% 76% 87%
Pressure 30.07 in1018.3 mb 29.92 in1013.2 mb -
Precipitation 0.00 in0.0 mm - -
Hour Temp Dew Point Humidity Winds Wind Gusts Pressure Precip Precip Rate Daily Precip Total
12:00 AM 43.9°F6.6°C 41.7°F5.4°C 92% 4.1 mph N6.6 kmh N 8.3 mph13.4 kmh 29.95 in1014.2 mb 0.00 in0.0 mm 0.00 in0.0 mm 0.00 in0.0 mm
12:05 AM 43.7°F6.5°C 41.5°F5.3°C 92% 3.1 mph NNW5.0 kmh NNW 7.6 mph12.2 kmh 29.95 in1014.2 mb 0.00 in0.0 mm 0.00 in0.0 mm 0.00 in0.0 mm
12:10 AM 43.7°F6.5°C 41.5°F5.3°C 92% 2.9 mph N4.7 kmh N 6.9 mph11.1 kmh 29.95 in1014.2 mb 0.00 in0.0 mm 0.00 in0.0 mm 0.00 in0.0 mm
12:15 AM 43.7°F6.5°C 41.5°F5.3°C 92% 2.8 mph NNW4.5 kmh NNW 6.9 mph11.1 kmh 29.95 in1014.2 mb 0.00 in0.0 mm 0.00 in0.0 mm 0.00 in0.0 mm
12:20 AM 43.7°F6.5°C 41.5°F5.3°C 92% 2.5 mph NW4.0 kmh NW 6.0 mph9.7 kmh 29.95 in1014.2 mb 0.00 in0.0 mm 0.00 in0.0 mm 0.00 in0.0 mm
12:25 AM 43.7°F6.5°C 41.5°F5.3°C 92% 2.5 mph N4.0 kmh N 6.0 mph9.7 kmh 29.96 in1014.6 mb 0.00 in0.0 mm 0.00 in0.0 mm 0.00 in0.0 mm
12:30 AM 43.7°F6.5°C 41.5°F5.3°C 92% 3.2 mph N5.1 kmh N 6.9 mph11.1 kmh 29.96 in1014.6 mb 0.00 in0.0 mm 0.00 in0.0 mm 0.00 in0.0 mm
12:35 AM 43.7°F6.5°C 41.5°F5.3°C 92% 4.4 mph N7.1 kmh N 11.4 mph18.3 kmh 29.96 in1014.6 mb 0.00 in0.0 mm 0.00 in0.0 mm 0.00 in0.0 mm
12:40 AM 43.7°F6.5°C 41.5°F5.3°C 92% 4.6 mph N7.4 kmh N 11.4 mph18.3 kmh 29.96 in1014.6 mb 0.00 in0.0 mm 0.00 in0.0 mm 0.00 in0.0 mm
12:45 AM 43.5°F6.4°C 41.4°F5.2°C 92% 4.9 mph N7.9 kmh N 10.7 mph17.2 kmh 29.96 in1014.6 mb 0.00 in0.0 mm 0.00 in0.0 mm 0.00 in0.0 mm
12:50 AM 43.5°F6.4°C 41.4°F5.2°C 92% 5.2 mph N8.4 kmh N 12.1 mph19.5 kmh 29.96 in1014.6 mb 0.00 in0.0 mm 0.00 in0.0 mm 0.00 in0.0 mm
12:55 AM 43.5°F6.4°C 41.4°F5.2°C 92% 6.1 mph N9.8 kmh N 12.1 mph19.5 kmh 29.96 in1014.6 mb 0.00 in0.0 mm 0.00 in0.0 mm 0.00 in0.0 mm
01:00 AM 43.5°F6.4°C 41.1°F5.1°C 91% 6.9 mph N11.1 kmh N 12.1 mph19.5 kmh 29.96 in1014.6 mb 0.00 in0.0 mm 0.00 in0.0 mm 0.00 in0.0 mm
01:05 AM 43.3°F6.3°C 40.9°F4.9°C 91% 7.0 mph N11.3 kmh N 11.4 mph18.3 kmh 29.96 in1014.6 mb 0.00 in0.0 mm 0.00 in0.0 mm 0.00 in0.0 mm
01:10 AM 43.3°F6.3°C 40.9°F4.9°C 91% 6.9 mph N11.1 kmh N 11.4 mph18.3 kmh 29.96 in1014.6 mb 0.00 in0.0 mm 0.00 in0.0 mm 0.00 in0.0 mm
01:15 AM 43.2°F6.2°C 40.7°F4.8°C 91% 5.9 mph N9.5 kmh N 9.8 mph15.8 kmh 29.96 in1014.6 mb 0.00 in0.0 mm 0.00 in0.0 mm 0.00 in0.0 mm
01:20 AM 43.2°F6.2°C 40.7°F4.8°C 91% 5.4 mph N8.7 kmh N 8.3 mph13.4 kmh 29.96 in1014.6 mb 0.00 in0.0 mm 0.00 in0.0 mm 0.00 in0.0 mm
01:25 AM 43.2°F6.2°C 40.7°F4.8°C 91% 5.1 mph N8.2 kmh N 8.3 mph13.4 kmh 29.97 in1014.9 mb 0.00 in0.0 mm 0.00 in0.0 mm 0.00 in0.0 mm
01:30 AM 43.2°F6.2°C 40.7°F4.8°C 91% 4.7 mph N7.6 kmh N 7.6 mph12.2 kmh 29.97 in1014.9 mb 0.00 in0.0 mm 0.00 in0.0 mm 0.00 in0.0 mm
01:35 AM 43.0°F6.1°C 40.5°F4.7°C 91% 4.3 mph N6.9 kmh N 7.6 mph12.2 kmh 29.97 in1014.9 mb 0.00 in0.0 mm 0.00 in0.0 mm 0.00 in0.0 mm
01:40 AM 43.0°F6.1°C 40.5°F4.7°C 91% 3.8 mph N6.1 kmh N 6.9 mph11.1 kmh 29.97 in1014.9 mb 0.00 in0.0 mm 0.00 in0.0 mm 0.00 in0.0 mm
01:45 AM 43.0°F6.1°C 40.5°F4.7°C 91% 3.5 mph N5.6 kmh N 6.9 mph11.1 kmh 29.97 in1014.9 mb 0.00 in0.0 mm 0.00 in0.0 mm 0.00 in0.0 mm
01:50 AM 43.0°F6.1°C 40.5°F4.7°C 91% 3.0 mph NNW4.8 kmh NNW 6.9 mph11.1 kmh 29.97 in1014.9 mb 0.00 in0.0 mm 0.00 in0.0 mm 0.00 in0.0 mm
01:55 AM 43.0°F6.1°C 40.5°F4.7°C 91% 2.8 mph NNW4.5 kmh NNW 5.4 mph8.7 kmh 29.97 in1014.9 mb 0.00 in0.0 mm 0.00 in0.0 mm 0.00 in0.0 mm
02:00 AM 42.8°F6.0°C 40.4°F4.7°C 91% 2.7 mph NNW4.3 kmh NNW 6.9 mph11.1 kmh 29.97 in1014.9 mb 0.00 in0.0 mm 0.00 in0.0 mm 0.00 in0.0 mm
02:05 AM 42.6°F5.9°C 40.2°F4.6°C 91% 2.0 mph NNW3.2 kmh NNW 6.9 mph11.1 kmh 29.97 in1014.9 mb 0.00 in0.0 mm 0.00 in0.0 mm 0.00 in0.0 mm
02:10 AM 42.6°F5.9°C 40.2°F4.6°C 91% 2.6 mph N4.2 kmh N 6.9 mph11.1 kmh 29.97 in1014.9 mb 0.00 in0.0 mm 0.00 in0.0 mm 0.00 in0.0 mm
02:15 AM 42.6°F5.9°C 40.2°F4.6°C 91% 2.9 mph N4.7 kmh N 6.9 mph11.1 kmh 29.97 in1014.9 mb 0.00 in0.0 mm 0.00 in0.0 mm 0.00 in0.0 mm
02:20 AM 42.6°F5.9°C 40.2°F4.6°C 91% 1.7 mph NNW2.7 kmh NNW 4.5 mph7.2 kmh 29.97 in1014.9 mb 0.00 in0.0 mm 0.00 in0.0 mm 0.00 in0.0 mm
02:25 AM 42.6°F5.9°C 40.2°F4.6°C 91% 1.0 mph NNW1.6 kmh NNW 3.8 mph6.1 kmh 29.98 in1015.2 mb 0.00 in0.0 mm 0.00 in0.0 mm 0.00 in0.0 mm
02:30 AM 42.6°F5.9°C 40.2°F4.6°C 91% 0.6 mph NW1.0 kmh NW 2.2 mph3.5 kmh 29.98 in1015.2 mb 0.00 in0.0 mm 0.00 in0.0 mm 0.00 in0.0 mm
02:35 AM 42.6°F5.9°C 40.2°F4.6°C 91% 0.7 mph NW1.1 kmh NW 2.2 mph3.5 kmh 29.98 in1015.2 mb 0.00 in0.0 mm 0.00 in0.0 mm 0.00 in0.0 mm
02:40 AM 42.6°F5.9°C 40.2°F4.6°C 91% 0.9 mph NW1.4 kmh NW 2.2 mph3.5 kmh 29.98 in1015.2 mb 0.00 in0.0 mm 0.00 in0.0 mm 0.00 in0.0 mm
02:45 AM 42.6°F5.9°C 40.2°F4.6°C 91% 0.6 mph NW1.0 kmh NW 2.2 mph3.5 kmh 29.98 in1015.2 mb 0.00 in0.0 mm 0.00 in0.0 mm 0.00 in0.0 mm
02:50 AM 42.6°F5.9°C 40.2°F4.6°C 91% 0.6 mph NW1.0 kmh NW 3.1 mph5.0 kmh 29.98 in1015.2 mb 0.00 in0.0 mm 0.00 in0.0 mm 0.00 in0.0 mm
02:55 AM 42.6°F5.9°C 40.2°F4.6°C 91% 1.1 mph NW1.8 kmh NW 3.8 mph6.1 kmh 29.98 in1015.2 mb 0.00 in0.0 mm 0.00 in0.0 mm 0.00 in0.0 mm
03:00 AM 42.6°F5.9°C 40.2°F4.6°C 91% 1.5 mph NW2.4 kmh NW 4.5 mph7.2 kmh 29.98 in1015.2 mb 0.00 in0.0 mm 0.00 in0.0 mm 0.00 in0.0 mm
03:05 AM 42.8°F6.0°C 40.1°F4.5°C 90% 1.5 mph WNW2.4 kmh WNW 4.5 mph7.2 kmh 29.98 in1015.2 mb 0.00 in0.0 mm 0.00 in0.0 mm 0.00 in0.0 mm
03:10 AM 42.8°F6.0°C 40.1°F4.5°C 90% 1.6 mph WSW2.6 kmh WSW 6.9 mph11.1 kmh 29.98 in1015.2 mb 0.00 in0.0 mm 0.00 in0.0 mm 0.00 in0.0 mm
03:15 AM 42.8°F6.0°C 40.1°F4.5°C 90% 1.6 mph WSW2.6 kmh WSW 6.9 mph11.1 kmh 29.98 in1015.2 mb 0.00 in0.0 mm 0.00 in0.0 mm 0.00 in0.0 mm
03:20 AM 42.8°F6.0°C 40.1°F4.5°C 90% 1.2 mph WNW1.9 kmh WNW 3.8 mph6.1 kmh 29.98 in1015.2 mb 0.00 in0.0 mm 0.00 in0.0 mm 0.00 in0.0 mm
03:25 AM 42.8°F6.0°C 40.1°F4.5°C 90% 1.5 mph N2.4 kmh N 4.5 mph7.2 kmh 29.98 in1015.2 mb 0.00 in0.0 mm 0.00 in0.0 mm 0.00 in0.0 mm
03:30 AM 42.8°F6.0°C 40.1°F4.5°C 90% 1.6 mph NNW2.6 kmh NNW 4.5 mph7.2 kmh 29.98 in1015.2 mb 0.00 in0.0 mm 0.00 in0.0 mm 0.00 in0.0 mm
03:35 AM 42.8°F6.0°C 40.1°F4.5°C 90% 1.3 mph NW2.1 kmh NW 3.8 mph6.1 kmh 29.99 in1015.6 mb 0.00 in0.0 mm 0.00 in0.0 mm 0.00 in0.0 mm
03:40 AM 42.8°F6.0°C 40.1°F4.5°C 90% 1.5 mph NNW2.4 kmh NNW 3.8 mph6.1 kmh 29.99 in1015.6 mb 0.00 in0.0 mm 0.00 in0.0 mm 0.00 in0.0 mm
03:45 AM 42.6°F5.9°C 40.2°F4.6°C 91% 1.5 mph NW2.4 kmh NW 3.8 mph6.1 kmh 29.99 in1015.6 mb 0.00 in0.0 mm 0.00 in0.0 mm 0.00 in0.0 mm
03:50 AM 42.8°F6.0°C 40.1°F4.5°C 90% 0.8 mph WNW1.3 kmh WNW 3.1 mph5.0 kmh 29.99 in1015.6 mb 0.00 in0.0 mm 0.00 in0.0 mm 0.00 in0.0 mm
03:55 AM 42.8°F6.0°C 40.1°F4.5°C 90% 1.2 mph WNW1.9 kmh WNW 4.5 mph7.2 kmh 29.99 in1015.6 mb 0.00 in0.0 mm 0.00 in0.0 mm 0.00 in0.0 mm
04:00 AM 42.8°F6.0°C 40.1°F4.5°C 90% 2.5 mph W4.0 kmh W 5.4 mph8.7 kmh 29.99 in1015.6 mb 0.00 in0.0 mm 0.00 in0.0 mm 0.00 in0.0 mm
04:05 AM 42.8°F6.0°C 40.4°F4.7°C 91% 2.3 mph WSW3.7 kmh WSW 5.4 mph8.7 kmh 29.99 in1015.6 mb 0.00 in0.0 mm 0.00 in0.0 mm 0.00 in0.0 mm
04:10 AM 43.0°F6.1°C 40.5°F4.7°C 91% 2.1 mph WSW3.4 kmh WSW 6.0 mph9.7 kmh 29.99 in1015.6 mb 0.00 in0.0 mm 0.00 in0.0 mm 0.00 in0.0 mm
04:15 AM 43.0°F6.1°C 40.5°F4.7°C 91% 2.5 mph SW4.0 kmh SW 6.0 mph9.7 kmh 30.00 in1015.9 mb 0.00 in0.0 mm 0.00 in0.0 mm 0.00 in0.0 mm
04:20 AM 43.0°F6.1°C 40.5°F4.7°C 91% 2.5 mph SW4.0 kmh SW 5.4 mph8.7 kmh 30.00 in1015.9 mb 0.00 in0.0 mm 0.00 in0.0 mm 0.00 in0.0 mm
04:25 AM 43.0°F6.1°C 40.5°F4.7°C 91% 2.8 mph WSW4.5 kmh WSW 5.4 mph8.7 kmh 30.00 in1015.9 mb 0.00 in0.0 mm 0.00 in0.0 mm 0.00 in0.0 mm
04:30 AM 43.0°F6.1°C 40.5°F4.7°C 91% 2.7 mph W4.3 kmh W 6.0 mph9.7 kmh 30.00 in1015.9 mb 0.00 in0.0 mm 0.00 in0.0 mm 0.00 in0.0 mm
04:35 AM 43.0°F6.1°C 40.5°F4.7°C 91% 2.6 mph WSW4.2 kmh WSW 6.9 mph11.1 kmh 30.00 in1015.9 mb 0.00 in0.0 mm 0.00 in0.0 mm 0.00 in0.0 mm
04:40 AM 43.0°F6.1°C 40.5°F4.7°C 91% 2.0 mph WSW3.2 kmh WSW 6.9 mph11.1 kmh 30.00 in1015.9 mb 0.00 in0.0 mm 0.00 in0.0 mm 0.00 in0.0 mm
04:45 AM 43.0°F6.1°C 40.5°F4.7°C 91% 1.3 mph WNW2.1 kmh WNW 3.8 mph6.1 kmh 30.00 in1015.9 mb 0.00 in0.0 mm 0.00 in0.0 mm 0.00 in0.0 mm
04:50 AM 42.8°F6.0°C 40.4°F4.7°C 91% 1.2 mph WSW1.9 kmh WSW 3.8 mph6.1 kmh 30.00 in1015.9 mb 0.00 in0.0 mm 0.00 in0.0 mm 0.00 in0.0 mm
04:55 AM 42.8°F6.0°C 40.4°F4.7°C 91% 1.6 mph SW2.6 kmh SW 4.5 mph7.2 kmh 30.00 in1015.9 mb 0.00 in0.0 mm 0.00 in0.0 mm 0.00 in0.0 mm
05:00 AM 42.8°F6.0°C 40.4°F4.7°C 91% 2.3 mph WSW3.7 kmh WSW 4.5 mph7.2 kmh 30.01 in1016.3 mb 0.00 in0.0 mm 0.00 in0.0 mm 0.00 in0.0 mm
05:05 AM 42.8°F6.0°C 40.4°F4.7°C 91% 2.6 mph SW4.2 kmh SW 5.4 mph8.7 kmh 30.01 in1016.3 mb 0.00 in0.0 mm 0.00 in0.0 mm 0.00 in0.0 mm
05:10 AM 42.8°F6.0°C 40.4°F4.7°C 91% 2.3 mph WSW3.7 kmh WSW 6.0 mph9.7 kmh 30.01 in1016.3 mb 0.00 in0.0 mm 0.00 in0.0 mm 0.00 in0.0 mm
05:15 AM 42.8°F6.0°C 40.4°F4.7°C 91% 2.0 mph WSW3.2 kmh WSW 6.0 mph9.7 kmh 30.01 in1016.3 mb 0.00 in0.0 mm 0.00 in0.0 mm 0.00 in0.0 mm
05:20 AM 42.8°F6.0°C 40.4°F4.7°C 91% 1.9 mph WSW3.1 kmh WSW 5.4 mph8.7 kmh 30.01 in1016.3 mb 0.00 in0.0 mm 0.00 in0.0 mm 0.00 in0.0 mm
05:25 AM 42.8°F6.0°C 40.4°F4.7°C 91% 2.0 mph WSW3.2 kmh WSW 4.5 mph7.2 kmh 30.01 in1016.3 mb 0.00 in0.0 mm 0.00 in0.0 mm 0.00 in0.0 mm
05:30 AM 42.8°F6.0°C 40.4°F4.7°C 91% 2.2 mph WSW3.5 kmh WSW 4.5 mph7.2 kmh 30.01 in1016.3 mb 0.00 in0.0 mm 0.00 in0.0 mm 0.00 in0.0 mm
05:35 AM 42.8°F6.0°C 40.4°F4.7°C 91% 2.0 mph W3.2 kmh W 6.0 mph9.7 kmh 30.02 in1016.6 mb 0.00 in0.0 mm 0.00 in0.0 mm 0.00 in0.0 mm
05:40 AM 42.8°F6.0°C 40.4°F4.7°C 91% 1.5 mph NW2.4 kmh NW 6.0 mph9.7 kmh 30.02 in1016.6 mb 0.00 in0.0 mm 0.00 in0.0 mm 0.00 in0.0 mm
05:45 AM 42.8°F6.0°C 40.4°F4.7°C 91% 1.4 mph WNW2.3 kmh WNW 4.5 mph7.2 kmh 30.02 in1016.6 mb 0.00 in0.0 mm 0.00 in0.0 mm 0.00 in0.0 mm
05:50 AM 42.8°F6.0°C 40.4°F4.7°C 91% 1.5 mph SW2.4 kmh SW 6.0 mph9.7 kmh 30.02 in1016.6 mb 0.00 in0.0 mm 0.00 in0.0 mm 0.00 in0.0 mm
05:55 AM 42.8°F6.0°C 40.4°F4.7°C 91% 1.5 mph WSW2.4 kmh WSW 6.0 mph9.7 kmh 30.02 in1016.6 mb 0.00 in0.0 mm 0.00 in0.0 mm 0.00 in0.0 mm
06:00 AM 42.6°F5.9°C 40.5°F4.7°C 92% 1.5 mph WSW2.4 kmh WSW 4.5 mph7.2 kmh 30.02 in1016.6 mb 0.00 in0.0 mm 0.00 in0.0 mm 0.00 in0.0 mm
06:05 AM 42.6°F5.9°C 40.5°F4.7°C 92% 1.7 mph WSW2.7 kmh WSW 4.5 mph7.2 kmh 30.02 in1016.6 mb 0.00 in0.0 mm 0.00 in0.0 mm 0.00 in0.0 mm
06:10 AM 42.6°F5.9°C 40.5°F4.7°C 92% 1.7 mph N2.7 kmh N 4.5 mph7.2 kmh 30.02 in1016.6 mb 0.00 in0.0 mm 0.00 in0.0 mm 0.00 in0.0 mm
06:15 AM 42.6°F5.9°C 40.5°F4.7°C 92% 1.5 mph NNW2.4 kmh NNW 4.5 mph7.2 kmh 30.03 in1016.9 mb 0.00 in0.0 mm 0.00 in0.0 mm 0.00 in0.0 mm
06:20 AM 42.6°F5.9°C 40.5°F4.7°C 92% 1.3 mph NNW2.1 kmh NNW 3.8 mph6.1 kmh 30.03 in1016.9 mb 0.00 in0.0 mm 0.00 in0.0 mm 0.00 in0.0 mm
06:25 AM 42.6°F5.9°C 40.5°F4.7°C 92% 1.3 mph NNW2.1 kmh NNW 3.8 mph6.1 kmh 30.03 in1016.9 mb 0.00 in0.0 mm 0.00 in0.0 mm 0.00 in0.0 mm
06:30 AM 42.6°F5.9°C 40.7°F4.8°C 93% 1.3 mph W2.1 kmh W 3.8 mph6.1 kmh 30.03 in1016.9 mb 0.00 in0.0 mm 0.00 in0.0 mm 0.00 in0.0 mm
06:35 AM 42.6°F5.9°C 40.7°F4.8°C 93% 1.5 mph WSW2.4 kmh WSW 5.4 mph8.7 kmh 30.03 in1016.9 mb 0.00 in0.0 mm 0.00 in0.0 mm 0.00 in0.0 mm
06:40 AM 42.6°F5.9°C 40.7°F4.8°C 93% 1.5 mph WSW2.4 kmh WSW 5.4 mph8.7 kmh 30.03 in1016.9 mb 0.00 in0.0 mm 0.00 in0.0 mm 0.00 in0.0 mm
06:45 AM 42.6°F5.9°C 40.7°F4.8°C 93% 1.1 mph WNW1.8 kmh WNW 4.5 mph7.2 kmh 30.04 in1017.3 mb 0.00 in0.0 mm 0.00 in0.0 mm 0.00 in0.0 mm
06:50 AM 42.6°F5.9°C 40.7°F4.8°C 93% 1.0 mph W1.6 kmh W 3.1 mph5.0 kmh 30.03 in1016.9 mb 0.00 in0.0 mm 0.00 in0.0 mm 0.00 in0.0 mm
06:55 AM 42.4°F5.8°C 40.6°F4.8°C 93% 1.1 mph NW1.8 kmh NW 3.1 mph5.0 kmh 30.03 in1016.9 mb 0.00 in0.0 mm 0.00 in0.0 mm 0.00 in0.0 mm
07:00 AM 42.4°F5.8°C 40.6°F4.8°C 93% 0.8 mph NW1.3 kmh NW 3.1 mph5.0 kmh 30.03 in1016.9 mb 0.00 in0.0 mm 0.00 in0.0 mm 0.00 in0.0 mm
07:05 AM 42.4°F5.8°C 40.6°F4.8°C 93% 0.3 mph NW0.5 kmh NW 2.2 mph3.5 kmh 30.02 in1016.6 mb 0.00 in0.0 mm 0.00 in0.0 mm 0.00 in0.0 mm
07:10 AM 42.4°F5.8°C 40.6°F4.8°C 93% 0.2 mph NNW0.3 kmh NNW 2.2 mph3.5 kmh 30.02 in1016.6 mb 0.00 in0.0 mm 0.00 in0.0 mm 0.00 in0.0 mm
07:15 AM 42.4°F5.8°C 40.6°F4.8°C 93% 1.0 mph N1.6 kmh N 3.1 mph5.0 kmh 30.02 in1016.6 mb 0.00 in0.0 mm 0.00 in0.0 mm 0.00 in0.0 mm
07:20 AM 42.4°F5.8°C 40.6°F4.8°C 93% 1.5 mph N2.4 kmh N 3.1 mph5.0 kmh 30.02 in1016.6 mb 0.00 in0.0 mm 0.00 in0.0 mm 0.00 in0.0 mm
07:25 AM 42.4°F5.8°C 40.6°F4.8°C 93% 0.9 mph NNW1.4 kmh NNW 3.1 mph5.0 kmh 30.02 in1016.6 mb 0.00 in0.0 mm 0.00 in0.0 mm 0.00 in0.0 mm
07:30 AM 42.6°F5.9°C 40.7°F4.8°C 93% 0.4 mph NW0.6 kmh NW 2.2 mph3.5 kmh 30.02 in1016.6 mb 0.00 in0.0 mm 0.00 in0.0 mm 0.00 in0.0 mm
07:35 AM 42.6°F5.9°C 40.7°F4.8°C 93% 0.2 mph NW0.3 kmh NW 1.6 mph2.6 kmh 30.02 in1016.6 mb 0.00 in0.0 mm 0.00 in0.0 mm 0.00 in0.0 mm
07:40 AM 42.6°F5.9°C 40.7°F4.8°C 93% 0.3 mph W0.5 kmh W 2.2 mph3.5 kmh 30.03 in1016.9 mb 0.00 in0.0 mm 0.00 in0.0 mm 0.00 in0.0 mm
07:45 AM 42.8°F6.0°C 40.6°F4.8°C 92% 1.1 mph WSW1.8 kmh WSW 3.8 mph6.1 kmh 30.03 in1016.9 mb 0.00 in0.0 mm 0.00 in0.0 mm 0.00 in0.0 mm
07:50 AM 42.8°F6.0°C 40.6°F4.8°C 92% 2.2 mph WSW3.5 kmh WSW 4.5 mph7.2 kmh 30.03 in1016.9 mb 0.00 in0.0 mm 0.00 in0.0 mm 0.00 in0.0 mm
07:55 AM 42.8°F6.0°C 40.6°F4.8°C 92% 2.2 mph WSW3.5 kmh WSW 4.5 mph7.2 kmh 30.03 in1016.9 mb 0.00 in0.0 mm 0.00 in0.0 mm 0.00 in0.0 mm
08:00 AM 43.0°F6.1°C 40.8°F4.9°C 92% 1.9 mph WSW3.1 kmh WSW 3.8 mph6.1 kmh 30.03 in1016.9 mb 0.00 in0.0 mm 0.00 in0.0 mm 0.00 in0.0 mm
08:05 AM 43.0°F6.1°C 40.8°F4.9°C 92% 2.1 mph WSW3.4 kmh WSW 4.5 mph7.2 kmh 30.03 in1016.9 mb 0.00 in0.0 mm 0.00 in0.0 mm 0.00 in0.0 mm
08:10 AM 43.2°F6.2°C 41.0°F5.0°C 92% 2.2 mph WSW3.5 kmh WSW 4.5 mph7.2 kmh 30.04 in1017.3 mb 0.00 in0.0 mm 0.00 in0.0 mm 0.00 in0.0 mm
08:15 AM 43.3°F6.3°C 41.2°F5.1°C 92% 2.5 mph WSW4.0 kmh WSW 6.0 mph9.7 kmh 30.04 in1017.3 mb 0.00 in0.0 mm 0.00 in0.0 mm 0.00 in0.0 mm
08:20 AM 43.3°F6.3°C 41.5°F5.3°C 93% 3.3 mph WSW5.3 kmh WSW 6.0 mph9.7 kmh 30.03 in1016.9 mb 0.00 in0.0 mm 0.00 in0.0 mm 0.00 in0.0 mm
08:25 AM 43.5°F6.4°C 41.6°F5.3°C 93% 3.9 mph WSW6.3 kmh WSW 6.9 mph11.1 kmh 30.04 in1017.3 mb 0.00 in0.0 mm 0.00 in0.0 mm 0.00 in0.0 mm
08:30 AM 43.5°F6.4°C 41.6°F5.3°C 93% 4.3 mph WSW6.9 kmh WSW 6.9 mph11.1 kmh 30.04 in1017.3 mb 0.00 in0.0 mm 0.00 in0.0 mm 0.00 in0.0 mm
08:35 AM 43.5°F6.4°C 41.6°F5.3°C 93% 4.1 mph WSW6.6 kmh WSW 6.9 mph11.1 kmh 30.04 in1017.3 mb 0.00 in0.0 mm 0.00 in0.0 mm 0.00 in0.0 mm
08:40 AM 43.7°F6.5°C 41.8°F5.4°C 93% 3.4 mph WSW5.5 kmh WSW 6.0 mph9.7 kmh 30.04 in1017.3 mb 0.00 in0.0 mm 0.00 in0.0 mm 0.00 in0.0 mm
08:45 AM 43.7°F6.5°C 41.8°F5.4°C 93% 3.1 mph W5.0 kmh W 7.6 mph12.2 kmh 30.04 in1017.3 mb 0.00 in0.0 mm 0.00 in0.0 mm 0.00 in0.0 mm
08:50 AM 43.9°F6.6°C 42.0°F5.6°C 93% 3.6 mph WSW5.8 kmh WSW 7.6 mph12.2 kmh 30.04 in1017.3 mb 0.00 in0.0 mm 0.00 in0.0 mm 0.00 in0.0 mm
08:55 AM 43.9°F6.6°C 42.0°F5.6°C 93% 3.8 mph WSW6.1 kmh WSW 6.0 mph9.7 kmh 30.04 in1017.3 mb 0.00 in0.0 mm 0.00 in0.0 mm 0.00 in0.0 mm
09:00 AM 44.1°F6.7°C 42.2°F5.7°C 93% 3.5 mph W5.6 kmh W 6.0 mph9.7 kmh 30.05 in1017.6 mb 0.00 in0.0 mm 0.00 in0.0 mm 0.00 in0.0 mm
09:05 AM 44.1°F6.7°C 42.2°F5.7°C 93% 3.2 mph W5.1 kmh W 6.0 mph9.7 kmh 30.05 in1017.6 mb 0.00 in0.0 mm 0.00 in0.0 mm 0.00 in0.0 mm
09:10 AM 44.1°F6.7°C 42.2°F5.7°C 93% 2.8 mph WSW4.5 kmh WSW 4.5 mph7.2 kmh 30.05 in1017.6 mb 0.00 in0.0 mm 0.00 in0.0 mm 0.00 in0.0 mm
09:15 AM 44.2°F6.8°C 42.3°F5.7°C 93% 2.2 mph W3.5 kmh W 6.0 mph9.7 kmh 30.05 in1017.6 mb 0.00 in0.0 mm 0.00 in0.0 mm 0.00 in0.0 mm
09:20 AM 44.4°F6.9°C 42.5°F5.8°C 93% 1.7 mph WNW2.7 kmh WNW 6.0 mph9.7 kmh 30.05 in1017.6 mb 0.00 in0.0 mm 0.00 in0.0 mm 0.00 in0.0 mm
09:25 AM 44.6°F7.0°C 42.4°F5.8°C 92% 1.3 mph W2.1 kmh W 3.1 mph5.0 kmh 30.06 in1017.9 mb 0.00 in0.0 mm 0.00 in0.0 mm 0.00 in0.0 mm
09:30 AM 44.8°F7.1°C 42.6°F5.9°C 92% 0.7 mph WNW1.1 kmh WNW 3.1 mph5.0 kmh 30.06 in1017.9 mb 0.00 in0.0 mm 0.00 in0.0 mm 0.00 in0.0 mm
09:35 AM 45.1°F7.3°C 43.0°F6.1°C 92% 0.5 mph NW0.8 kmh NW 2.2 mph3.5 kmh 30.06 in1017.9 mb 0.00 in0.0 mm 0.00 in0.0 mm 0.00 in0.0 mm
09:40 AM 45.1°F7.3°C 43.0°F6.1°C 92% 0.7 mph NW1.1 kmh NW 3.1 mph5.0 kmh 30.06 in1017.9 mb 0.00 in0.0 mm 0.00 in0.0 mm 0.00 in0.0 mm
09:45 AM 45.3°F7.4°C 43.1°F6.2°C 92% 0.6 mph WNW1.0 kmh WNW 3.1 mph5.0 kmh 30.07 in1018.3 mb 0.00 in0.0 mm 0.00 in0.0 mm 0.00 in0.0 mm
09:50 AM 45.5°F7.5°C 43.0°F6.1°C 91% 0.3 mph NW0.5 kmh NW 2.2 mph3.5 kmh 30.07 in1018.3 mb 0.00 in0.0 mm 0.00 in0.0 mm 0.00 in0.0 mm
09:55 AM 45.7°F7.6°C 43.2°F6.2°C 91% 0.2 mph NW0.3 kmh NW 2.2 mph3.5 kmh 30.07 in1018.3 mb 0.00 in0.0 mm 0.00 in0.0 mm 0.00 in0.0 mm
10:00 AM 45.9°F7.7°C 43.4°F6.3°C 91% 0.5 mph NW0.8 kmh NW 3.8 mph6.1 kmh 30.07 in1018.3 mb 0.00 in0.0 mm 0.00 in0.0 mm 0.00 in0.0 mm
10:05 AM 46.0°F7.8°C 43.6°F6.4°C 91% 1.5 mph N2.4 kmh N 3.8 mph6.1 kmh 30.07 in1018.3 mb 0.00 in0.0 mm 0.00 in0.0 mm 0.00 in0.0 mm
10:10 AM 46.2°F7.9°C 43.7°F6.5°C 91% 1.9 mph N3.1 kmh N 3.8 mph6.1 kmh 30.07 in1018.3 mb 0.00 in0.0 mm 0.00 in0.0 mm 0.00 in0.0 mm
10:15 AM 46.6°F8.1°C 43.8°F6.6°C 90% 1.9 mph N3.1 kmh N 3.8 mph6.1 kmh 30.07 in1018.3 mb 0.00 in0.0 mm 0.00 in0.0 mm 0.00 in0.0 mm
10:20 AM 46.8°F8.2°C 44.0°F6.7°C 90% 1.5 mph N2.4 kmh N 3.8 mph6.1 kmh 30.07 in1018.3 mb 0.00 in0.0 mm 0.00 in0.0 mm 0.00 in0.0 mm
10:25 AM 47.1°F8.4°C 44.3°F6.8°C 90% 1.5 mph N2.4 kmh N 3.1 mph5.0 kmh 30.07 in1018.3 mb 0.00 in0.0 mm 0.00 in0.0 mm 0.00 in0.0 mm
10:30 AM 47.3°F8.5°C 44.2°F6.8°C 89% 1.6 mph N2.6 kmh N 3.1 mph5.0 kmh 30.07 in1018.3 mb 0.00 in0.0 mm 0.00 in0.0 mm 0.00 in0.0 mm
10:35 AM 47.5°F8.6°C 44.4°F6.9°C 89% 1.1 mph N1.8 kmh N 3.1 mph5.0 kmh 30.07 in1018.3 mb 0.00 in0.0 mm 0.00 in0.0 mm 0.00 in0.0 mm
10:40 AM 47.7°F8.7°C 44.6°F7.0°C 89% 1.3 mph N2.1 kmh N 3.1 mph5.0 kmh 30.07 in1018.3 mb 0.00 in0.0 mm 0.00 in0.0 mm 0.00 in0.0 mm
10:45 AM 47.8°F8.8°C 44.8°F7.1°C 89% 1.7 mph NNE2.7 kmh NNE 3.8 mph6.1 kmh 30.07 in1018.3 mb 0.00 in0.0 mm 0.00 in0.0 mm 0.00 in0.0 mm
10:50 AM 48.0°F8.9°C 44.6°F7.0°C 88% 1.6 mph NNE2.6 kmh NNE 3.8 mph6.1 kmh 30.07 in1018.3 mb 0.00 in0.0 mm 0.00 in0.0 mm 0.00 in0.0 mm
10:55 AM 48.0°F8.9°C 44.6°F7.0°C 88% 1.5 mph NNE2.4 kmh NNE 3.8 mph6.1 kmh 30.07 in1018.3 mb 0.00 in0.0 mm 0.00 in0.0 mm 0.00 in0.0 mm
11:00 AM 48.2°F9.0°C 44.5°F6.9°C 87% 1.6 mph NNE2.6 kmh NNE 3.8 mph6.1 kmh 30.07 in1018.3 mb 0.00 in0.0 mm 0.00 in0.0 mm 0.00 in0.0 mm
11:05 AM 48.2°F9.0°C 44.2°F6.8°C 86% 1.9 mph NE3.1 kmh NE 3.8 mph6.1 kmh 30.07 in1018.3 mb 0.00 in0.0 mm 0.00 in0.0 mm 0.00 in0.0 mm
11:10 AM 48.6°F9.2°C 44.6°F7.0°C 86% 2.1 mph NE3.4 kmh NE 3.8 mph6.1 kmh 30.07 in1018.3 mb 0.00 in0.0 mm 0.00 in0.0 mm 0.00 in0.0 mm
11:15 AM 48.7°F9.3°C 44.7°F7.1°C 86% 1.5 mph NE2.4 kmh NE 3.1 mph5.0 kmh 30.07 in1018.3 mb 0.00 in0.0 mm 0.00 in0.0 mm 0.00 in0.0 mm
11:20 AM 48.9°F9.4°C 44.9°F7.2°C 86% 1.6 mph NE2.6 kmh NE 3.8 mph6.1 kmh 30.07 in1018.3 mb 0.00 in0.0 mm 0.00 in0.0 mm 0.00 in0.0 mm
11:25 AM 49.1°F9.5°C 44.8°F7.1°C 85% 1.7 mph ENE2.7 kmh ENE 3.8 mph6.1 kmh 30.07 in1018.3 mb 0.00 in0.0 mm 0.00 in0.0 mm 0.00 in0.0 mm
11:30 AM 49.3°F9.6°C 45.0°F7.2°C 85% 1.9 mph ENE3.1 kmh ENE 4.5 mph7.2 kmh 30.07 in1018.3 mb 0.00 in0.0 mm 0.00 in0.0 mm 0.00 in0.0 mm
11:35 AM 49.5°F9.7°C 45.1°F7.3°C 85% 2.1 mph ENE3.4 kmh ENE 4.5 mph7.2 kmh 30.07 in1018.3 mb 0.00 in0.0 mm 0.00 in0.0 mm 0.00 in0.0 mm
11:40 AM 49.6°F9.8°C 45.0°F7.2°C 84% 1.9 mph E3.1 kmh E 3.8 mph6.1 kmh 30.07 in1018.3 mb 0.00 in0.0 mm 0.00 in0.0 mm 0.00 in0.0 mm
11:45 AM 49.6°F9.8°C 45.0°F7.2°C 84% 1.8 mph E2.9 kmh E 3.8 mph6.1 kmh 30.07 in1018.3 mb 0.00 in0.0 mm 0.00 in0.0 mm 0.00 in0.0 mm
11:50 AM 49.6°F9.8°C 45.0°F7.2°C 84% 1.6 mph E2.6 kmh E 3.8 mph6.1 kmh 30.07 in1018.3 mb 0.00 in0.0 mm 0.00 in0.0 mm 0.00 in0.0 mm
11:55 AM 49.6°F9.8°C 44.7°F7.1°C 83% 1.8 mph E2.9 kmh E 3.8 mph6.1 kmh 30.07 in1018.3 mb 0.00 in0.0 mm 0.00 in0.0 mm 0.00 in0.0 mm
12:00 PM 49.6°F9.8°C 44.7°F7.1°C 83% 2.1 mph E3.4 kmh E 4.5 mph7.2 kmh 30.07 in1018.3 mb 0.00 in0.0 mm 0.00 in0.0 mm 0.00 in0.0 mm
12:05 PM 49.5°F9.7°C 44.2°F6.8°C 82% 3.0 mph ESE4.8 kmh ESE 6.9 mph11.1 kmh 30.06 in1017.9 mb 0.00 in0.0 mm 0.00 in0.0 mm 0.00 in0.0 mm
12:10 PM 49.6°F9.8°C 44.4°F6.9°C 82% 3.7 mph ESE6.0 kmh ESE 6.9 mph11.1 kmh 30.06 in1017.9 mb 0.00 in0.0 mm 0.00 in0.0 mm 0.00 in0.0 mm
12:15 PM 49.8°F9.9°C 44.5°F6.9°C 82% 3.9 mph SE6.3 kmh SE 6.9 mph11.1 kmh 30.06 in1017.9 mb 0.00 in0.0 mm 0.00 in0.0 mm 0.00 in0.0 mm
12:20 PM 50.2°F10.1°C 44.6°F7.0°C 81% 4.2 mph ESE6.8 kmh ESE 6.9 mph11.1 kmh 30.06 in1017.9 mb 0.00 in0.0 mm 0.00 in0.0 mm 0.00 in0.0 mm
12:25 PM 50.5°F10.3°C 44.9°F7.2°C 81% 4.3 mph E6.9 kmh E 6.9 mph11.1 kmh 30.06 in1017.9 mb 0.00 in0.0 mm 0.00 in0.0 mm 0.00 in0.0 mm
12:30 PM 50.7°F10.4°C 45.1°F7.3°C 81% 4.1 mph E6.6 kmh E 6.0 mph9.7 kmh 30.06 in1017.9 mb 0.00 in0.0 mm 0.00 in0.0 mm 0.00 in0.0 mm
12:35 PM 50.7°F10.4°C 45.1°F7.3°C 81% 3.6 mph E5.8 kmh E 6.0 mph9.7 kmh 30.06 in1017.9 mb 0.00 in0.0 mm 0.00 in0.0 mm 0.00 in0.0 mm
12:40 PM 50.7°F10.4°C 44.8°F7.1°C 80% 2.8 mph E4.5 kmh E 6.0 mph9.7 kmh 30.06 in1017.9 mb 0.00 in0.0 mm 0.00 in0.0 mm 0.00 in0.0 mm
12:45 PM 50.7°F10.4°C 44.4°F6.9°C 79% 2.3 mph SE3.7 kmh SE 4.5 mph7.2 kmh 30.06 in1017.9 mb 0.00 in0.0 mm 0.00 in0.0 mm 0.00 in0.0 mm
12:50 PM 50.7°F10.4°C 44.1°F6.7°C 78% 2.3 mph ESE3.7 kmh ESE 4.5 mph7.2 kmh 30.06 in1017.9 mb 0.00 in0.0 mm 0.00 in0.0 mm 0.00 in0.0 mm
12:55 PM 50.7°F10.4°C 44.1°F6.7°C 78% 2.5 mph ESE4.0 kmh ESE 6.0 mph9.7 kmh 30.06 in1017.9 mb 0.00 in0.0 mm 0.00 in0.0 mm 0.00 in0.0 mm
01:00 PM 50.5°F10.3°C 43.6°F6.4°C 77% 2.4 mph SE3.9 kmh SE 6.0 mph9.7 kmh 30.06 in1017.9 mb 0.00 in0.0 mm 0.00 in0.0 mm 0.00 in0.0 mm
01:05 PM 50.4°F10.2°C 43.4°F6.3°C 77% 2.4 mph SE3.9 kmh SE 6.9 mph11.1 kmh 30.06 in1017.9 mb 0.00 in0.0 mm 0.00 in0.0 mm 0.00 in0.0 mm
01:10 PM 50.2°F10.1°C 43.2°F6.2°C 77% 2.5 mph SE4.0 kmh SE 6.9 mph11.1 kmh 30.06 in1017.9 mb 0.00 in0.0 mm 0.00 in0.0 mm 0.00 in0.0 mm
01:15 PM 49.8°F9.9°C 43.2°F6.2°C 78% 2.2 mph ESE3.5 kmh ESE 4.5 mph7.2 kmh 30.06 in1017.9 mb 0.00 in0.0 mm 0.00 in0.0 mm 0.00 in0.0 mm
01:20 PM 49.6°F9.8°C 43.1°F6.2°C 78% 2.9 mph ESE4.7 kmh ESE 6.0 mph9.7 kmh 30.05 in1017.6 mb 0.00 in0.0 mm 0.00 in0.0 mm 0.00 in0.0 mm
01:25 PM 49.6°F9.8°C 43.1°F6.2°C 78% 3.4 mph E5.5 kmh E 6.0 mph9.7 kmh 30.06 in1017.9 mb 0.00 in0.0 mm 0.00 in0.0 mm 0.00 in0.0 mm
01:30 PM 49.8°F9.9°C 43.2°F6.2°C 78% 4.4 mph E7.1 kmh E 8.3 mph13.4 kmh 30.05 in1017.6 mb 0.00 in0.0 mm 0.00 in0.0 mm 0.00 in0.0 mm
01:35 PM 50.0°F10.0°C 43.1°F6.2°C 77% 5.6 mph E9.0 kmh E 8.3 mph13.4 kmh 30.05 in1017.6 mb 0.00 in0.0 mm 0.00 in0.0 mm 0.00 in0.0 mm
01:40 PM 50.4°F10.2°C 43.4°F6.3°C 77% 4.9 mph E7.9 kmh E 8.3 mph13.4 kmh 30.05 in1017.6 mb 0.00 in0.0 mm 0.00 in0.0 mm 0.00 in0.0 mm
01:45 PM 50.5°F10.3°C 43.6°F6.4°C 77% 4.1 mph E6.6 kmh E 6.9 mph11.1 kmh 30.05 in1017.6 mb 0.00 in0.0 mm 0.00 in0.0 mm 0.00 in0.0 mm
01:50 PM 50.7°F10.4°C 43.8°F6.6°C 77% 4.3 mph E6.9 kmh E 6.9 mph11.1 kmh 30.05 in1017.6 mb 0.00 in0.0 mm 0.00 in0.0 mm 0.00 in0.0 mm
01:55 PM 50.7°F10.4°C 43.8°F6.6°C 77% 3.8 mph ESE6.1 kmh ESE 6.9 mph11.1 kmh 30.05 in1017.6 mb 0.00 in0.0 mm 0.00 in0.0 mm 0.00 in0.0 mm
02:00 PM 50.5°F10.3°C 43.3°F6.3°C 76% 3.4 mph SE5.5 kmh SE 6.0 mph9.7 kmh 30.05 in1017.6 mb 0.00 in0.0 mm 0.00 in0.0 mm 0.00 in0.0 mm
02:05 PM 50.5°F10.3°C 43.3°F6.3°C 76% 3.7 mph SE6.0 kmh SE 6.9 mph11.1 kmh 30.04 in1017.3 mb 0.00 in0.0 mm 0.00 in0.0 mm 0.00 in0.0 mm
02:10 PM 50.2°F10.1°C 42.9°F6.1°C 76% 4.3 mph ESE6.9 kmh ESE 8.3 mph13.4 kmh 30.04 in1017.3 mb 0.00 in0.0 mm 0.00 in0.0 mm 0.00 in0.0 mm
02:15 PM 49.8°F9.9°C 42.9°F6.1°C 77% 4.6 mph ESE7.4 kmh ESE 8.3 mph13.4 kmh 30.04 in1017.3 mb 0.00 in0.0 mm 0.00 in0.0 mm 0.00 in0.0 mm
02:20 PM 49.8°F9.9°C 42.9°F6.1°C 77% 3.8 mph ESE6.1 kmh ESE 8.3 mph13.4 kmh 30.04 in1017.3 mb 0.00 in0.0 mm 0.00 in0.0 mm 0.00 in0.0 mm
02:25 PM 49.8°F9.9°C 43.2°F6.2°C 78% 3.9 mph ESE6.3 kmh ESE 6.9 mph11.1 kmh 30.04 in1017.3 mb 0.00 in0.0 mm 0.00 in0.0 mm 0.00 in0.0 mm
02:30 PM 50.0°F10.0°C 43.1°F6.2°C 77% 4.3 mph E6.9 kmh E 7.6 mph12.2 kmh 30.04 in1017.3 mb 0.00 in0.0 mm 0.00 in0.0 mm 0.00 in0.0 mm
02:35 PM 50.2°F10.1°C 43.2°F6.2°C 77% 3.7 mph ESE6.0 kmh ESE 7.6 mph12.2 kmh 30.04 in1017.3 mb 0.00 in0.0 mm 0.00 in0.0 mm 0.00 in0.0 mm
02:40 PM 50.0°F10.0°C 43.1°F6.2°C 77% 2.7 mph SE4.3 kmh SE 6.0 mph9.7 kmh 30.03 in1016.9 mb 0.00 in0.0 mm 0.00 in0.0 mm 0.00 in0.0 mm
02:45 PM 50.0°F10.0°C 43.1°F6.2°C 77% 2.6 mph SE4.2 kmh SE 5.4 mph8.7 kmh 30.03 in1016.9 mb 0.00 in0.0 mm 0.00 in0.0 mm 0.00 in0.0 mm
02:50 PM 49.5°F9.7°C 42.5°F5.8°C 77% 3.2 mph SE5.1 kmh SE 6.0 mph9.7 kmh 30.03 in1016.9 mb 0.00 in0.0 mm 0.00 in0.0 mm 0.00 in0.0 mm
02:55 PM 49.3°F9.6°C 42.4°F5.8°C 77% 3.7 mph SE6.0 kmh SE 6.0 mph9.7 kmh 30.03 in1016.9 mb 0.00 in0.0 mm 0.00 in0.0 mm 0.00 in0.0 mm
03:00 PM 49.1°F9.5°C 42.2°F5.7°C 77% 3.3 mph SE5.3 kmh SE 7.6 mph12.2 kmh 30.03 in1016.9 mb 0.00 in0.0 mm 0.00 in0.0 mm 0.00 in0.0 mm
03:05 PM 48.9°F9.4°C 42.4°F5.8°C 78% 3.2 mph SE5.1 kmh SE 7.6 mph12.2 kmh 30.03 in1016.9 mb 0.00 in0.0 mm 0.00 in0.0 mm 0.00 in0.0 mm
03:10 PM 48.9°F9.4°C 42.4°F5.8°C 78% 3.4 mph SE5.5 kmh SE 7.6 mph12.2 kmh 30.03 in1016.9 mb 0.00 in0.0 mm 0.00 in0.0 mm 0.00 in0.0 mm
03:15 PM 48.9°F9.4°C 42.7°F5.9°C 79% 3.1 mph SE5.0 kmh SE 7.6 mph12.2 kmh 30.03 in1016.9 mb 0.00 in0.0 mm 0.00 in0.0 mm 0.00 in0.0 mm
03:20 PM 48.7°F9.3°C 42.5°F5.8°C 79% 3.1 mph SE5.0 kmh SE 7.6 mph12.2 kmh 30.03 in1016.9 mb 0.00 in0.0 mm 0.00 in0.0 mm 0.00 in0.0 mm
03:25 PM 48.6°F9.2°C 42.3°F5.7°C 79% 2.9 mph ESE4.7 kmh ESE 6.9 mph11.1 kmh 30.03 in1016.9 mb 0.00 in0.0 mm 0.00 in0.0 mm 0.00 in0.0 mm
03:30 PM 48.4°F9.1°C 42.2°F5.7°C 79% 2.2 mph E3.5 kmh E 6.9 mph11.1 kmh 30.03 in1016.9 mb 0.00 in0.0 mm 0.00 in0.0 mm 0.00 in0.0 mm
03:35 PM 48.4°F9.1°C 42.2°F5.7°C 79% 1.6 mph S2.6 kmh S 6.9 mph11.1 kmh 30.03 in1016.9 mb 0.00 in0.0 mm 0.00 in0.0 mm 0.00 in0.0 mm
03:40 PM 48.2°F9.0°C 42.0°F5.6°C 79% 1.5 mph ENE2.4 kmh ENE 5.4 mph8.7 kmh 30.03 in1016.9 mb 0.00 in0.0 mm 0.00 in0.0 mm 0.00 in0.0 mm
03:45 PM 48.0°F8.9°C 42.1°F5.6°C 80% 2.1 mph S3.4 kmh S 5.4 mph8.7 kmh 30.03 in1016.9 mb 0.00 in0.0 mm 0.00 in0.0 mm 0.00 in0.0 mm
03:50 PM 48.0°F8.9°C 42.1°F5.6°C 80% 2.1 mph NW3.4 kmh NW 6.0 mph9.7 kmh 30.02 in1016.6 mb 0.00 in0.0 mm 0.00 in0.0 mm 0.00 in0.0 mm
03:55 PM 48.0°F8.9°C 42.1°F5.6°C 80% 2.4 mph E3.9 kmh E 6.9 mph11.1 kmh 30.02 in1016.6 mb 0.00 in0.0 mm 0.00 in0.0 mm 0.00 in0.0 mm
04:00 PM 47.8°F8.8°C 42.0°F5.6°C 80% 2.6 mph SE4.2 kmh SE 6.9 mph11.1 kmh 30.02 in1016.6 mb 0.00 in0.0 mm 0.00 in0.0 mm 0.00 in0.0 mm
04:05 PM 47.8°F8.8°C 42.0°F5.6°C 80% 1.8 mph SE2.9 kmh SE 6.0 mph9.7 kmh 30.02 in1016.6 mb 0.00 in0.0 mm 0.00 in0.0 mm 0.00 in0.0 mm
04:10 PM 47.7°F8.7°C 41.8°F5.4°C 80% 1.3 mph WSW2.1 kmh WSW 4.5 mph7.2 kmh 30.02 in1016.6 mb 0.00 in0.0 mm 0.00 in0.0 mm 0.00 in0.0 mm
04:15 PM 47.7°F8.7°C 41.8°F5.4°C 80% 1.8 mph SW2.9 kmh SW 5.4 mph8.7 kmh 30.02 in1016.6 mb 0.00 in0.0 mm 0.00 in0.0 mm 0.00 in0.0 mm
04:20 PM 47.5°F8.6°C 41.6°F5.3°C 80% 2.5 mph S4.0 kmh S 6.9 mph11.1 kmh 30.02 in1016.6 mb 0.00 in0.0 mm 0.00 in0.0 mm 0.00 in0.0 mm
04:25 PM 47.3°F8.5°C 41.8°F5.4°C 81% 3.2 mph SE5.1 kmh SE 6.9 mph11.1 kmh 30.02 in1016.6 mb 0.00 in0.0 mm 0.00 in0.0 mm 0.00 in0.0 mm
04:30 PM 47.3°F8.5°C 41.8°F5.4°C 81% 3.4 mph SE5.5 kmh SE 7.6 mph12.2 kmh 30.01 in1016.3 mb 0.00 in0.0 mm 0.00 in0.0 mm 0.00 in0.0 mm
04:35 PM 47.3°F8.5°C 41.8°F5.4°C 81% 3.6 mph SSE5.8 kmh SSE 7.6 mph12.2 kmh 30.02 in1016.6 mb 0.00 in0.0 mm 0.00 in0.0 mm 0.00 in0.0 mm
04:40 PM 47.1°F8.4°C 41.6°F5.3°C 81% 3.1 mph SE5.0 kmh SE 7.6 mph12.2 kmh 30.02 in1016.6 mb 0.00 in0.0 mm 0.00 in0.0 mm 0.00 in0.0 mm
04:45 PM 47.1°F8.4°C 41.6°F5.3°C 81% 2.3 mph SSE3.7 kmh SSE 5.4 mph8.7 kmh 30.02 in1016.6 mb 0.00 in0.0 mm 0.00 in0.0 mm 0.00 in0.0 mm
04:50 PM 47.1°F8.4°C 41.9°F5.5°C 82% 1.6 mph SW2.6 kmh SW 5.4 mph8.7 kmh 30.02 in1016.6 mb 0.00 in0.0 mm 0.00 in0.0 mm 0.00 in0.0 mm
04:55 PM 47.1°F8.4°C 41.9°F5.5°C 82% 1.0 mph WNW1.6 kmh WNW 3.1 mph5.0 kmh 30.02 in1016.6 mb 0.00 in0.0 mm 0.00 in0.0 mm 0.00 in0.0 mm
05:00 PM 47.1°F8.4°C 41.9°F5.5°C 82% 0.7 mph W1.1 kmh W 3.1 mph5.0 kmh 30.02 in1016.6 mb 0.00 in0.0 mm 0.00 in0.0 mm 0.00 in0.0 mm
05:05 PM 46.9°F8.3°C 41.7°F5.4°C 82% 0.6 mph SW1.0 kmh SW 2.2 mph3.5 kmh 30.02 in1016.6 mb 0.00 in0.0 mm 0.00 in0.0 mm 0.00 in0.0 mm
05:10 PM 46.9°F8.3°C 41.7°F5.4°C 82% 0.7 mph W1.1 kmh W 3.8 mph6.1 kmh 30.02 in1016.6 mb 0.00 in0.0 mm 0.00 in0.0 mm 0.00 in0.0 mm
05:15 PM 46.9°F8.3°C 41.7°F5.4°C 82% 0.7 mph W1.1 kmh W 3.8 mph6.1 kmh 30.02 in1016.6 mb 0.00 in0.0 mm 0.00 in0.0 mm 0.00 in0.0 mm
05:20 PM 46.8°F8.2°C 41.9°F5.5°C 83% 0.5 mph NW0.8 kmh NW 3.1 mph5.0 kmh 30.02 in1016.6 mb 0.00 in0.0 mm 0.00 in0.0 mm 0.00 in0.0 mm
05:25 PM 46.8°F8.2°C 41.9°F5.5°C 83% 1.0 mph S1.6 kmh S 4.5 mph7.2 kmh 30.01 in1016.3 mb 0.00 in0.0 mm 0.00 in0.0 mm 0.00 in0.0 mm
05:30 PM 46.6°F8.1°C 41.7°F5.4°C 83% 1.6 mph SE2.6 kmh SE 5.4 mph8.7 kmh 30.01 in1016.3 mb 0.00 in0.0 mm 0.00 in0.0 mm 0.00 in0.0 mm
05:35 PM 46.6°F8.1°C 41.7°F5.4°C 83% 2.1 mph SE3.4 kmh SE 5.4 mph8.7 kmh 30.01 in1016.3 mb 0.00 in0.0 mm 0.00 in0.0 mm 0.00 in0.0 mm
05:40 PM 46.6°F8.1°C 41.7°F5.4°C 83% 1.9 mph S3.1 kmh S 5.4 mph8.7 kmh 30.01 in1016.3 mb 0.00 in0.0 mm 0.00 in0.0 mm 0.00 in0.0 mm
05:45 PM 46.4°F8.0°C 41.8°F5.4°C 84% 1.5 mph SSE2.4 kmh SSE 4.5 mph7.2 kmh 30.01 in1016.3 mb 0.00 in0.0 mm 0.00 in0.0 mm 0.00 in0.0 mm
05:50 PM 46.4°F8.0°C 41.8°F5.4°C 84% 1.7 mph SE2.7 kmh SE 5.4 mph8.7 kmh 30.01 in1016.3 mb 0.00 in0.0 mm 0.00 in0.0 mm 0.00 in0.0 mm
05:55 PM 46.4°F8.0°C 41.8°F5.4°C 84% 2.1 mph SE3.4 kmh SE 5.4 mph8.7 kmh 30.01 in1016.3 mb 0.00 in0.0 mm 0.00 in0.0 mm 0.00 in0.0 mm
06:00 PM 46.2°F7.9°C 41.3°F5.2°C 83% 2.1 mph SE3.4 kmh SE 5.4 mph8.7 kmh 30.01 in1016.3 mb 0.00 in0.0 mm 0.00 in0.0 mm 0.00 in0.0 mm
06:05 PM 46.2°F7.9°C 41.7°F5.4°C 84% 1.8 mph S2.9 kmh S 4.5 mph7.2 kmh 30.01 in1016.3 mb 0.00 in0.0 mm 0.00 in0.0 mm 0.00 in0.0 mm
06:10 PM 46.2°F7.9°C 41.7°F5.4°C 84% 2.2 mph S3.5 kmh S 7.6 mph12.2 kmh 30.01 in1016.3 mb 0.00 in0.0 mm 0.00 in0.0 mm 0.00 in0.0 mm
06:15 PM 46.0°F7.8°C 41.5°F5.3°C 84% 2.5 mph SSE4.0 kmh SSE 7.6 mph12.2 kmh 30.01 in1016.3 mb 0.00 in0.0 mm 0.00 in0.0 mm 0.00 in0.0 mm
06:20 PM 46.0°F7.8°C 41.5°F5.3°C 84% 2.4 mph SE3.9 kmh SE 7.6 mph12.2 kmh 30.00 in1015.9 mb 0.00 in0.0 mm 0.00 in0.0 mm 0.00 in0.0 mm
06:25 PM 46.0°F7.8°C 41.5°F5.3°C 84% 2.2 mph SSE3.5 kmh SSE 4.5 mph7.2 kmh 30.00 in1015.9 mb 0.00 in0.0 mm 0.00 in0.0 mm 0.00 in0.0 mm
06:30 PM 46.0°F7.8°C 41.5°F5.3°C 84% 2.0 mph SSE3.2 kmh SSE 4.5 mph7.2 kmh 30.00 in1015.9 mb 0.00 in0.0 mm 0.00 in0.0 mm 0.00 in0.0 mm
06:35 PM 46.0°F7.8°C 41.8°F5.4°C 85% 2.2 mph SE3.5 kmh SE 4.5 mph7.2 kmh 30.00 in1015.9 mb 0.00 in0.0 mm 0.00 in0.0 mm 0.00 in0.0 mm
06:40 PM 46.0°F7.8°C 41.8°F5.4°C 85% 2.6 mph SE4.2 kmh SE 4.5 mph7.2 kmh 30.00 in1015.9 mb 0.00 in0.0 mm 0.00 in0.0 mm 0.00 in0.0 mm
06:45 PM 46.0°F7.8°C 41.8°F5.4°C 85% 2.3 mph S3.7 kmh S 4.5 mph7.2 kmh 30.00 in1015.9 mb 0.00 in0.0 mm 0.00 in0.0 mm 0.00 in0.0 mm
06:50 PM 46.0°F7.8°C 41.8°F5.4°C 85% 2.0 mph S3.2 kmh S 5.4 mph8.7 kmh 30.00 in1015.9 mb 0.00 in0.0 mm 0.00 in0.0 mm 0.00 in0.0 mm
06:55 PM 45.9°F7.7°C 41.6°F5.3°C 85% 2.3 mph S3.7 kmh S 5.4 mph8.7 kmh 30.00 in1015.9 mb 0.00 in0.0 mm 0.00 in0.0 mm 0.00 in0.0 mm
07:00 PM 45.9°F7.7°C 41.6°F5.3°C 85% 2.6 mph SSE4.2 kmh SSE 4.5 mph7.2 kmh 29.99 in1015.6 mb 0.00 in0.0 mm 0.00 in0.0 mm 0.00 in0.0 mm
07:05 PM 45.9°F7.7°C 41.6°F5.3°C 85% 2.3 mph S3.7 kmh S 4.5 mph7.2 kmh 30.00 in1015.9 mb 0.00 in0.0 mm 0.00 in0.0 mm 0.00 in0.0 mm
07:10 PM 45.9°F7.7°C 41.9°F5.5°C 86% 2.0 mph S3.2 kmh S 5.4 mph8.7 kmh 30.00 in1015.9 mb 0.00 in0.0 mm 0.00 in0.0 mm 0.00 in0.0 mm
07:15 PM 45.9°F7.7°C 41.9°F5.5°C 86% 2.1 mph SE3.4 kmh SE 5.4 mph8.7 kmh 30.00 in1015.9 mb 0.00 in0.0 mm 0.00 in0.0 mm 0.00 in0.0 mm
07:20 PM 45.9°F7.7°C 41.9°F5.5°C 86% 1.8 mph ESE2.9 kmh ESE 5.4 mph8.7 kmh 29.99 in1015.6 mb 0.00 in0.0 mm 0.00 in0.0 mm 0.00 in0.0 mm
07:25 PM 45.9°F7.7°C 41.9°F5.5°C 86% 1.6 mph NW2.6 kmh NW 3.8 mph6.1 kmh 29.99 in1015.6 mb 0.00 in0.0 mm 0.00 in0.0 mm 0.00 in0.0 mm
07:30 PM 45.9°F7.7°C 41.9°F5.5°C 86% 2.2 mph S3.5 kmh S 5.4 mph8.7 kmh 29.98 in1015.2 mb 0.00 in0.0 mm 0.00 in0.0 mm 0.00 in0.0 mm
07:35 PM 45.9°F7.7°C 41.9°F5.5°C 86% 2.5 mph S4.0 kmh S 5.4 mph8.7 kmh 29.98 in1015.2 mb 0.00 in0.0 mm 0.00 in0.0 mm 0.00 in0.0 mm
07:40 PM 46.0°F7.8°C 42.1°F5.6°C 86% 2.6 mph S4.2 kmh S 5.4 mph8.7 kmh 29.99 in1015.6 mb 0.00 in0.0 mm 0.00 in0.0 mm 0.00 in0.0 mm
07:45 PM 46.0°F7.8°C 42.1°F5.6°C 86% 2.6 mph SE4.2 kmh SE 5.4 mph8.7 kmh 29.98 in1015.2 mb 0.00 in0.0 mm 0.00 in0.0 mm 0.00 in0.0 mm
07:50 PM 46.0°F7.8°C 42.1°F5.6°C 86% 2.3 mph SSE3.7 kmh SSE 5.4 mph8.7 kmh 29.98 in1015.2 mb 0.00 in0.0 mm 0.00 in0.0 mm 0.00 in0.0 mm
07:55 PM 46.0°F7.8°C 42.1°F5.6°C 86% 2.3 mph S3.7 kmh S 5.4 mph8.7 kmh 29.98 in1015.2 mb 0.00 in0.0 mm 0.00 in0.0 mm 0.00 in0.0 mm
08:00 PM 45.9°F7.7°C 41.9°F5.5°C 86% 2.1 mph S3.4 kmh S 4.5 mph7.2 kmh 29.98 in1015.2 mb 0.00 in0.0 mm 0.00 in0.0 mm 0.00 in0.0 mm
08:05 PM 45.9°F7.7°C 41.9°F5.5°C 86% 1.9 mph S3.1 kmh S 3.8 mph6.1 kmh 29.98 in1015.2 mb 0.00 in0.0 mm 0.00 in0.0 mm 0.00 in0.0 mm
08:10 PM 45.9°F7.7°C 41.9°F5.5°C 86% 2.1 mph SE3.4 kmh SE 5.4 mph8.7 kmh 29.98 in1015.2 mb 0.00 in0.0 mm 0.00 in0.0 mm 0.00 in0.0 mm
08:15 PM 45.9°F7.7°C 41.9°F5.5°C 86% 2.0 mph ESE3.2 kmh ESE 5.4 mph8.7 kmh 29.98 in1015.2 mb 0.00 in0.0 mm 0.00 in0.0 mm 0.00 in0.0 mm
08:20 PM 45.9°F7.7°C 41.9°F5.5°C 86% 1.7 mph SE2.7 kmh SE 4.5 mph7.2 kmh 29.98 in1015.2 mb 0.00 in0.0 mm 0.00 in0.0 mm 0.00 in0.0 mm
08:35 PM 45.9°F7.7°C 41.9°F5.5°C 86% 1.0 mph NW1.6 kmh NW 4.5 mph7.2 kmh 29.97 in1014.9 mb 0.00 in0.0 mm 0.00 in0.0 mm 0.00 in0.0 mm
08:40 PM 45.7°F7.6°C 41.7°F5.4°C 86% 1.0 mph NE1.6 kmh NE 4.5 mph7.2 kmh 29.97 in1014.9 mb 0.00 in0.0 mm 0.00 in0.0 mm 0.00 in0.0 mm
08:45 PM 45.7°F7.6°C 41.7°F5.4°C 86% 1.3 mph SW2.1 kmh SW 4.5 mph7.2 kmh 29.97 in1014.9 mb 0.00 in0.0 mm 0.00 in0.0 mm 0.00 in0.0 mm
08:50 PM 45.7°F7.6°C 41.7°F5.4°C 86% 1.1 mph W1.8 kmh W 4.5 mph7.2 kmh 29.97 in1014.9 mb 0.00 in0.0 mm 0.00 in0.0 mm 0.00 in0.0 mm
09:00 PM 45.5°F7.5°C 41.6°F5.3°C 86% 0.9 mph WNW1.4 kmh WNW 4.5 mph7.2 kmh 29.97 in1014.9 mb 0.00 in0.0 mm 0.00 in0.0 mm 0.00 in0.0 mm
09:05 PM 45.5°F7.5°C 41.6°F5.3°C 86% 0.8 mph NNW1.3 kmh NNW 4.5 mph7.2 kmh 29.96 in1014.6 mb 0.00 in0.0 mm 0.00 in0.0 mm 0.00 in0.0 mm
09:40 PM 45.1°F7.3°C 41.5°F5.3°C 87% 0.8 mph NW1.3 kmh NW 2.2 mph3.5 kmh 29.96 in1014.6 mb 0.00 in0.0 mm 0.00 in0.0 mm 0.00 in0.0 mm
09:45 PM 45.0°F7.2°C 41.3°F5.2°C 87% 0.9 mph NW1.4 kmh NW 4.5 mph7.2 kmh 29.96 in1014.6 mb 0.00 in0.0 mm 0.00 in0.0 mm 0.00 in0.0 mm
09:50 PM 44.8°F7.1°C 41.1°F5.1°C 87% 1.0 mph NE1.6 kmh NE 4.5 mph7.2 kmh 29.96 in1014.6 mb 0.00 in0.0 mm 0.00 in0.0 mm 0.00 in0.0 mm
10:10 PM 44.4°F6.9°C 41.1°F5.1°C 88% 1.2 mph E1.9 kmh E 4.5 mph7.2 kmh 29.95 in1014.2 mb 0.00 in0.0 mm 0.00 in0.0 mm 0.00 in0.0 mm
10:30 PM 44.4°F6.9°C 41.4°F5.2°C 89% 1.0 mph S1.6 kmh S 3.8 mph6.1 kmh 29.94 in1013.9 mb 0.00 in0.0 mm 0.00 in0.0 mm 0.00 in0.0 mm
10:35 PM 44.4°F6.9°C 41.4°F5.2°C 89% 1.3 mph WSW2.1 kmh WSW 4.5 mph7.2 kmh 29.93 in1013.5 mb 0.00 in0.0 mm 0.00 in0.0 mm 0.00 in0.0 mm
10:40 PM 44.6°F7.0°C 41.3°F5.2°C 88% 1.8 mph SW2.9 kmh SW 5.4 mph8.7 kmh 29.94 in1013.9 mb 0.00 in0.0 mm 0.00 in0.0 mm 0.00 in0.0 mm
10:45 PM 44.6°F7.0°C 41.3°F5.2°C 88% 2.8 mph S4.5 kmh S 6.0 mph9.7 kmh 29.93 in1013.5 mb 0.00 in0.0 mm 0.00 in0.0 mm 0.00 in0.0 mm
10:50 PM 44.6°F7.0°C 41.3°F5.2°C 88% 3.3 mph S5.3 kmh S 6.0 mph9.7 kmh 29.93 in1013.5 mb 0.00 in0.0 mm 0.00 in0.0 mm 0.00 in0.0 mm
10:55 PM 44.6°F7.0°C 41.3°F5.2°C 88% 2.3 mph SSE3.7 kmh SSE 6.0 mph9.7 kmh 29.93 in1013.5 mb 0.00 in0.0 mm 0.00 in0.0 mm 0.00 in0.0 mm
11:00 PM 44.6°F7.0°C 41.3°F5.2°C 88% 1.4 mph SE2.3 kmh SE 5.4 mph8.7 kmh 29.93 in1013.5 mb 0.00 in0.0 mm 0.00 in0.0 mm 0.00 in0.0 mm
11:05 PM 44.6°F7.0°C 41.6°F5.3°C 89% 1.6 mph SSE2.6 kmh SSE 6.0 mph9.7 kmh 29.93 in1013.5 mb 0.00 in0.0 mm 0.00 in0.0 mm 0.00 in0.0 mm
11:10 PM 44.6°F7.0°C 41.6°F5.3°C 89% 1.7 mph SE2.7 kmh SE 6.0 mph9.7 kmh 29.93 in1013.5 mb 0.00 in0.0 mm 0.00 in0.0 mm 0.00 in0.0 mm
11:15 PM 44.4°F6.9°C 41.7°F5.4°C 90% 1.2 mph ESE1.9 kmh ESE 4.5 mph7.2 kmh 29.92 in1013.2 mb 0.00 in0.0 mm 0.00 in0.0 mm 0.00 in0.0 mm
11:20 PM 44.4°F6.9°C 41.7°F5.4°C 90% 1.0 mph NE1.6 kmh NE 3.8 mph6.1 kmh 29.93 in1013.5 mb 0.00 in0.0 mm 0.00 in0.0 mm 0.00 in0.0 mm
11:25 PM 44.4°F6.9°C 41.7°F5.4°C 90% 0.9 mph NW1.4 kmh NW 3.8 mph6.1 kmh 29.92 in1013.2 mb 0.00 in0.0 mm 0.00 in0.0 mm 0.00 in0.0 mm
11:30 PM 44.4°F6.9°C 41.7°F5.4°C 90% 0.6 mph WSW1.0 kmh WSW 3.1 mph5.0 kmh 29.92 in1013.2 mb 0.00 in0.0 mm 0.00 in0.0 mm 0.00 in0.0 mm
11:35 PM 44.4°F6.9°C 41.7°F5.4°C 90% 0.6 mph WSW1.0 kmh WSW 3.1 mph5.0 kmh 29.92 in1013.2 mb 0.00 in0.0 mm 0.00 in0.0 mm 0.00 in0.0 mm
11:40 PM 44.4°F6.9°C 41.7°F5.4°C 90% 1.0 mph W1.6 kmh W 4.5 mph7.2 kmh 29.92 in1013.2 mb 0.00 in0.0 mm 0.00 in0.0 mm 0.00 in0.0 mm
11:45 PM 44.4°F6.9°C 41.7°F5.4°C 90% 1.2 mph N1.9 kmh N 4.5 mph7.2 kmh 29.92 in1013.2 mb 0.00 in0.0 mm 0.00 in0.0 mm 0.00 in0.0 mm
11:50 PM 44.4°F6.9°C 41.7°F5.4°C 90% 1.0 mph NE1.6 kmh NE 3.8 mph6.1 kmh 29.92 in1013.2 mb 0.00 in0.0 mm 0.00 in0.0 mm 0.00 in0.0 mm
11:55 PM 44.4°F6.9°C 41.7°F5.4°C 90% 0.7 mph NW1.1 kmh NW 3.1 mph5.0 kmh 29.92 in1013.2 mb 0.00 in0.0 mm 0.00 in0.0 mm 0.00 in0.0 mm